sensor_id;sensor_type;location;lat;lon;timestamp;P1;durP1;ratioP1;P2;durP2;ratioP2
18592;SDS011;9426;54.118;17.948;2024-03-02T00:00:17;68.83;;;33.73;;
18592;SDS011;9426;54.118;17.948;2024-03-02T00:05:42;65.63;;;33.23;;
18592;SDS011;9426;54.118;17.948;2024-03-02T00:11:06;58.97;;;31.57;;
18592;SDS011;9426;54.118;17.948;2024-03-02T00:16:33;66.13;;;35.13;;
18592;SDS011;9426;54.118;17.948;2024-03-02T00:22:00;86.87;;;43.07;;
18592;SDS011;9426;54.118;17.948;2024-03-02T00:27:23;84.03;;;41.50;;
18592;SDS011;9426;54.118;17.948;2024-03-02T00:32:48;75.30;;;41.23;;
18592;SDS011;9426;54.118;17.948;2024-03-02T00:38:16;81.83;;;41.47;;
18592;SDS011;9426;54.118;17.948;2024-03-02T00:43:43;81.63;;;42.13;;
18592;SDS011;9426;54.118;17.948;2024-03-02T00:49:18;75.33;;;40.77;;
18592;SDS011;9426;54.118;17.948;2024-03-02T00:54:43;74.20;;;38.83;;
18592;SDS011;9426;54.118;17.948;2024-03-02T01:00:07;82.90;;;41.93;;
18592;SDS011;9426;54.118;17.948;2024-03-02T01:05:34;83.10;;;41.77;;
18592;SDS011;9426;54.118;17.948;2024-03-02T01:10:58;78.87;;;40.97;;
18592;SDS011;9426;54.118;17.948;2024-03-02T01:16:22;98.03;;;47.60;;
18592;SDS011;9426;54.118;17.948;2024-03-02T01:21:46;98.27;;;46.70;;
18592;SDS011;9426;54.118;17.948;2024-03-02T01:27:13;97.43;;;46.50;;
18592;SDS011;9426;54.118;17.948;2024-03-02T01:32:37;105.10;;;48.30;;
18592;SDS011;9426;54.118;17.948;2024-03-02T01:38:02;100.57;;;48.57;;
18592;SDS011;9426;54.118;17.948;2024-03-02T01:43:27;102.70;;;49.73;;
18592;SDS011;9426;54.118;17.948;2024-03-02T01:48:51;106.53;;;48.90;;
18592;SDS011;9426;54.118;17.948;2024-03-02T01:54:15;103.27;;;50.70;;
18592;SDS011;9426;54.118;17.948;2024-03-02T01:59:41;109.70;;;52.20;;
18592;SDS011;9426;54.118;17.948;2024-03-02T02:05:08;105.93;;;50.97;;
18592;SDS011;9426;54.118;17.948;2024-03-02T02:10:33;107.53;;;50.00;;
18592;SDS011;9426;54.118;17.948;2024-03-02T02:16:03;106.47;;;51.00;;
18592;SDS011;9426;54.118;17.948;2024-03-02T02:21:29;105.80;;;51.27;;
18592;SDS011;9426;54.118;17.948;2024-03-02T02:26:54;116.47;;;54.03;;
18592;SDS011;9426;54.118;17.948;2024-03-02T02:32:17;104.20;;;51.23;;
18592;SDS011;9426;54.118;17.948;2024-03-02T02:37:42;112.67;;;53.03;;
18592;SDS011;9426;54.118;17.948;2024-03-02T02:43:06;104.37;;;50.47;;
18592;SDS011;9426;54.118;17.948;2024-03-02T02:48:29;112.47;;;51.07;;
18592;SDS011;9426;54.118;17.948;2024-03-02T02:53:54;108.57;;;51.90;;
18592;SDS011;9426;54.118;17.948;2024-03-02T02:59:17;112.20;;;51.43;;
18592;SDS011;9426;54.118;17.948;2024-03-02T03:04:41;116.83;;;54.00;;
18592;SDS011;9426;54.118;17.948;2024-03-02T03:10:07;112.97;;;53.03;;
18592;SDS011;9426;54.118;17.948;2024-03-02T03:15:31;113.73;;;50.70;;
18592;SDS011;9426;54.118;17.948;2024-03-02T03:20:54;112.27;;;52.37;;
18592;SDS011;9426;54.118;17.948;2024-03-02T03:26:19;109.33;;;51.13;;
18592;SDS011;9426;54.118;17.948;2024-03-02T03:31:42;104.07;;;51.63;;
18592;SDS011;9426;54.118;17.948;2024-03-02T03:37:05;111.10;;;54.87;;
18592;SDS011;9426;54.118;17.948;2024-03-02T03:42:30;110.23;;;51.90;;
18592;SDS011;9426;54.118;17.948;2024-03-02T03:47:54;106.40;;;49.93;;
18592;SDS011;9426;54.118;17.948;2024-03-02T03:53:18;100.83;;;49.30;;
18592;SDS011;9426;54.118;17.948;2024-03-02T03:58:42;97.83;;;49.30;;
18592;SDS011;9426;54.118;17.948;2024-03-02T04:04:06;98.13;;;48.57;;
18592;SDS011;9426;54.118;17.948;2024-03-02T04:09:29;99.40;;;49.20;;
18592;SDS011;9426;54.118;17.948;2024-03-02T04:14:54;96.17;;;49.17;;
18592;SDS011;9426;54.118;17.948;2024-03-02T04:20:17;103.87;;;49.27;;
18592;SDS011;9426;54.118;17.948;2024-03-02T04:25:41;91.03;;;46.13;;
18592;SDS011;9426;54.118;17.948;2024-03-02T04:31:06;91.50;;;47.13;;
18592;SDS011;9426;54.118;17.948;2024-03-02T04:36:29;92.60;;;46.83;;
18592;SDS011;9426;54.118;17.948;2024-03-02T04:41:52;98.80;;;47.53;;
18592;SDS011;9426;54.118;17.948;2024-03-02T04:47:17;98.37;;;46.77;;
18592;SDS011;9426;54.118;17.948;2024-03-02T04:52:41;90.00;;;45.80;;
18592;SDS011;9426;54.118;17.948;2024-03-02T04:58:05;89.90;;;45.63;;
18592;SDS011;9426;54.118;17.948;2024-03-02T05:03:32;92.87;;;45.27;;
18592;SDS011;9426;54.118;17.948;2024-03-02T05:08:58;91.63;;;46.57;;
18592;SDS011;9426;54.118;17.948;2024-03-02T05:14:24;90.57;;;43.57;;
18592;SDS011;9426;54.118;17.948;2024-03-02T05:19:49;84.93;;;43.87;;
18592;SDS011;9426;54.118;17.948;2024-03-02T05:25:13;80.53;;;42.17;;
18592;SDS011;9426;54.118;17.948;2024-03-02T05:30:36;84.87;;;42.40;;
18592;SDS011;9426;54.118;17.948;2024-03-02T05:36:01;81.07;;;42.37;;
18592;SDS011;9426;54.118;17.948;2024-03-02T05:41:24;77.77;;;41.67;;
18592;SDS011;9426;54.118;17.948;2024-03-02T05:46:48;86.80;;;43.40;;
18592;SDS011;9426;54.118;17.948;2024-03-02T05:52:13;81.03;;;42.93;;
18592;SDS011;9426;54.118;17.948;2024-03-02T05:57:36;81.97;;;41.80;;
18592;SDS011;9426;54.118;17.948;2024-03-02T06:03:17;85.43;;;43.70;;
18592;SDS011;9426;54.118;17.948;2024-03-02T06:08:42;88.17;;;43.70;;
18592;SDS011;9426;54.118;17.948;2024-03-02T06:14:05;90.50;;;44.90;;
18592;SDS011;9426;54.118;17.948;2024-03-02T06:19:29;93.50;;;46.50;;
18592;SDS011;9426;54.118;17.948;2024-03-02T06:24:54;88.63;;;45.93;;
18592;SDS011;9426;54.118;17.948;2024-03-02T06:30:19;89.60;;;44.80;;
18592;SDS011;9426;54.118;17.948;2024-03-02T06:35:43;91.43;;;45.77;;
18592;SDS011;9426;54.118;17.948;2024-03-02T06:41:08;89.00;;;46.27;;
18592;SDS011;9426;54.118;17.948;2024-03-02T06:46:32;85.60;;;44.07;;
18592;SDS011;9426;54.118;17.948;2024-03-02T06:51:55;81.10;;;45.03;;
18592;SDS011;9426;54.118;17.948;2024-03-02T06:57:20;85.17;;;44.10;;
18592;SDS011;9426;54.118;17.948;2024-03-02T07:02:43;85.47;;;45.00;;
18592;SDS011;9426;54.118;17.948;2024-03-02T07:08:07;84.53;;;43.40;;
18592;SDS011;9426;54.118;17.948;2024-03-02T07:13:32;109.67;;;55.93;;
18592;SDS011;9426;54.118;17.948;2024-03-02T07:18:55;132.90;;;64.00;;
18592;SDS011;9426;54.118;17.948;2024-03-02T07:24:20;109.60;;;53.63;;
18592;SDS011;9426;54.118;17.948;2024-03-02T07:29:45;102.53;;;53.27;;
18592;SDS011;9426;54.118;17.948;2024-03-02T07:35:09;76.77;;;40.83;;
18592;SDS011;9426;54.118;17.948;2024-03-02T07:40:32;81.93;;;42.37;;
18592;SDS011;9426;54.118;17.948;2024-03-02T07:45:57;79.77;;;42.77;;
18592;SDS011;9426;54.118;17.948;2024-03-02T07:51:21;84.37;;;43.90;;
18592;SDS011;9426;54.118;17.948;2024-03-02T07:56:45;79.97;;;41.67;;
18592;SDS011;9426;54.118;17.948;2024-03-02T08:02:10;77.30;;;41.33;;
18592;SDS011;9426;54.118;17.948;2024-03-02T08:07:34;76.87;;;39.77;;
18592;SDS011;9426;54.118;17.948;2024-03-02T08:12:57;75.17;;;40.30;;
18592;SDS011;9426;54.118;17.948;2024-03-02T08:18:22;81.07;;;42.63;;
18592;SDS011;9426;54.118;17.948;2024-03-02T08:23:46;73.17;;;39.70;;
18592;SDS011;9426;54.118;17.948;2024-03-02T08:29:10;69.80;;;39.20;;
18592;SDS011;9426;54.118;17.948;2024-03-02T08:34:36;73.03;;;39.57;;
18592;SDS011;9426;54.118;17.948;2024-03-02T08:39:59;72.33;;;40.30;;
18592;SDS011;9426;54.118;17.948;2024-03-02T08:45:23;75.03;;;41.57;;
18592;SDS011;9426;54.118;17.948;2024-03-02T08:50:48;91.63;;;45.77;;
18592;SDS011;9426;54.118;17.948;2024-03-02T08:56:12;70.50;;;39.30;;
18592;SDS011;9426;54.118;17.948;2024-03-02T09:01:38;68.60;;;38.67;;
18592;SDS011;9426;54.118;17.948;2024-03-02T09:07:04;65.17;;;36.67;;
18592;SDS011;9426;54.118;17.948;2024-03-02T09:12:31;68.63;;;38.33;;
18592;SDS011;9426;54.118;17.948;2024-03-02T09:17:55;64.50;;;37.33;;
18592;SDS011;9426;54.118;17.948;2024-03-02T09:23:20;68.63;;;36.97;;
18592;SDS011;9426;54.118;17.948;2024-03-02T09:28:43;68.33;;;35.97;;
18592;SDS011;9426;54.118;17.948;2024-03-02T09:34:09;62.67;;;35.33;;
18592;SDS011;9426;54.118;17.948;2024-03-02T09:39:34;65.70;;;35.17;;
18592;SDS011;9426;54.118;17.948;2024-03-02T09:44:58;60.97;;;34.83;;
18592;SDS011;9426;54.118;17.948;2024-03-02T09:50:22;61.57;;;34.93;;
18592;SDS011;9426;54.118;17.948;2024-03-02T09:55:47;67.40;;;37.07;;
18592;SDS011;9426;54.118;17.948;2024-03-02T10:01:11;66.13;;;37.43;;
18592;SDS011;9426;54.118;17.948;2024-03-02T10:06:36;68.13;;;37.37;;
18592;SDS011;9426;54.118;17.948;2024-03-02T10:12:05;65.10;;;36.33;;
18592;SDS011;9426;54.118;17.948;2024-03-02T10:17:30;64.47;;;35.00;;
18592;SDS011;9426;54.118;17.948;2024-03-02T10:22:59;63.30;;;35.57;;
18592;SDS011;9426;54.118;17.948;2024-03-02T10:28:36;67.90;;;38.53;;
18592;SDS011;9426;54.118;17.948;2024-03-02T10:34:11;70.00;;;39.10;;
18592;SDS011;9426;54.118;17.948;2024-03-02T10:39:35;71.87;;;38.77;;
18592;SDS011;9426;54.118;17.948;2024-03-02T10:45:02;69.30;;;37.70;;
18592;SDS011;9426;54.118;17.948;2024-03-02T10:50:28;68.37;;;37.00;;
18592;SDS011;9426;54.118;17.948;2024-03-02T10:55:53;66.03;;;37.50;;
18592;SDS011;9426;54.118;17.948;2024-03-02T11:01:25;71.20;;;37.23;;
18592;SDS011;9426;54.118;17.948;2024-03-02T11:06:49;61.77;;;35.53;;
18592;SDS011;9426;54.118;17.948;2024-03-02T11:12:15;66.10;;;37.67;;
18592;SDS011;9426;54.118;17.948;2024-03-02T11:17:43;58.03;;;34.67;;
18592;SDS011;9426;54.118;17.948;2024-03-02T11:23:09;67.63;;;36.30;;
18592;SDS011;9426;54.118;17.948;2024-03-02T11:28:34;63.60;;;36.20;;
18592;SDS011;9426;54.118;17.948;2024-03-02T11:34:02;68.53;;;36.73;;
18592;SDS011;9426;54.118;17.948;2024-03-02T11:39:41;54.53;;;33.40;;
18592;SDS011;9426;54.118;17.948;2024-03-02T11:45:08;56.60;;;33.10;;
18592;SDS011;9426;54.118;17.948;2024-03-02T11:50:36;52.67;;;32.33;;
18592;SDS011;9426;54.118;17.948;2024-03-02T11:56:04;50.53;;;30.77;;
18592;SDS011;9426;54.118;17.948;2024-03-02T12:01:34;53.00;;;32.73;;
18592;SDS011;9426;54.118;17.948;2024-03-02T12:07:00;54.33;;;33.80;;
18592;SDS011;9426;54.118;17.948;2024-03-02T12:12:25;52.67;;;31.27;;
18592;SDS011;9426;54.118;17.948;2024-03-02T12:17:54;52.13;;;30.93;;
18592;SDS011;9426;54.118;17.948;2024-03-02T12:23:19;58.23;;;32.57;;
18592;SDS011;9426;54.118;17.948;2024-03-02T12:28:43;50.93;;;32.17;;
18592;SDS011;9426;54.118;17.948;2024-03-02T12:34:07;50.67;;;31.63;;
18592;SDS011;9426;54.118;17.948;2024-03-02T12:39:32;52.50;;;32.50;;
18592;SDS011;9426;54.118;17.948;2024-03-02T12:44:55;51.90;;;31.17;;
18592;SDS011;9426;54.118;17.948;2024-03-02T12:50:22;45.47;;;29.47;;
18592;SDS011;9426;54.118;17.948;2024-03-02T12:55:48;47.53;;;28.87;;
18592;SDS011;9426;54.118;17.948;2024-03-02T13:01:14;47.53;;;29.17;;
18592;SDS011;9426;54.118;17.948;2024-03-02T13:06:40;46.17;;;29.20;;
18592;SDS011;9426;54.118;17.948;2024-03-02T13:12:06;51.67;;;30.43;;
18592;SDS011;9426;54.118;17.948;2024-03-02T13:17:29;45.10;;;28.70;;
18592;SDS011;9426;54.118;17.948;2024-03-02T13:22:54;54.60;;;30.57;;
18592;SDS011;9426;54.118;17.948;2024-03-02T13:28:21;52.17;;;30.10;;
18592;SDS011;9426;54.118;17.948;2024-03-02T13:33:45;49.73;;;30.43;;
18592;SDS011;9426;54.118;17.948;2024-03-02T13:39:09;46.10;;;29.27;;
18592;SDS011;9426;54.118;17.948;2024-03-02T13:44:35;54.53;;;30.87;;
18592;SDS011;9426;54.118;17.948;2024-03-02T13:49:59;48.47;;;30.93;;
18592;SDS011;9426;54.118;17.948;2024-03-02T13:55:23;47.73;;;28.97;;
18592;SDS011;9426;54.118;17.948;2024-03-02T14:00:48;51.50;;;29.77;;
18592;SDS011;9426;54.118;17.948;2024-03-02T14:06:11;48.83;;;29.63;;
18592;SDS011;9426;54.118;17.948;2024-03-02T14:11:35;43.33;;;27.60;;
18592;SDS011;9426;54.118;17.948;2024-03-02T14:17:00;46.13;;;27.97;;
18592;SDS011;9426;54.118;17.948;2024-03-02T14:22:25;44.20;;;27.70;;
18592;SDS011;9426;54.118;17.948;2024-03-02T14:27:49;49.53;;;28.33;;
18592;SDS011;9426;54.118;17.948;2024-03-02T14:33:19;56.90;;;30.10;;
18592;SDS011;9426;54.118;17.948;2024-03-02T14:38:43;48.07;;;29.47;;
18592;SDS011;9426;54.118;17.948;2024-03-02T14:44:07;49.50;;;28.73;;
18592;SDS011;9426;54.118;17.948;2024-03-02T14:49:32;54.97;;;30.23;;
18592;SDS011;9426;54.118;17.948;2024-03-02T14:54:57;55.77;;;30.90;;
18592;SDS011;9426;54.118;17.948;2024-03-02T15:00:21;53.40;;;31.30;;
18592;SDS011;9426;54.118;17.948;2024-03-02T15:05:46;51.70;;;29.40;;
18592;SDS011;9426;54.118;17.948;2024-03-02T15:11:14;54.47;;;32.13;;
18592;SDS011;9426;54.118;17.948;2024-03-02T15:16:39;53.60;;;30.97;;
18592;SDS011;9426;54.118;17.948;2024-03-02T15:22:05;68.47;;;33.83;;
18592;SDS011;9426;54.118;17.948;2024-03-02T15:27:29;60.03;;;32.23;;
18592;SDS011;9426;54.118;17.948;2024-03-02T15:32:53;67.13;;;35.97;;
18592;SDS011;9426;54.118;17.948;2024-03-02T15:38:18;69.80;;;36.03;;
18592;SDS011;9426;54.118;17.948;2024-03-02T15:43:42;63.63;;;35.33;;
18592;SDS011;9426;54.118;17.948;2024-03-02T15:49:05;67.90;;;37.10;;
18592;SDS011;9426;54.118;17.948;2024-03-02T15:54:31;68.27;;;37.10;;
18592;SDS011;9426;54.118;17.948;2024-03-02T15:59:54;84.97;;;38.20;;
18592;SDS011;9426;54.118;17.948;2024-03-02T16:05:18;66.00;;;36.10;;
18592;SDS011;9426;54.118;17.948;2024-03-02T16:10:43;72.20;;;39.90;;
18592;SDS011;9426;54.118;17.948;2024-03-02T16:16:06;83.63;;;42.27;;
18592;SDS011;9426;54.118;17.948;2024-03-02T16:21:29;77.50;;;41.10;;
18592;SDS011;9426;54.118;17.948;2024-03-02T16:26:54;123.80;;;59.00;;
18592;SDS011;9426;54.118;17.948;2024-03-02T16:32:18;77.47;;;40.73;;
18592;SDS011;9426;54.118;17.948;2024-03-02T16:37:42;71.90;;;36.80;;
18592;SDS011;9426;54.118;17.948;2024-03-02T16:43:08;76.30;;;39.53;;
18592;SDS011;9426;54.118;17.948;2024-03-02T16:48:32;73.43;;;38.33;;
18592;SDS011;9426;54.118;17.948;2024-03-02T16:53:56;82.80;;;39.03;;
18592;SDS011;9426;54.118;17.948;2024-03-02T16:59:22;77.27;;;38.70;;
18592;SDS011;9426;54.118;17.948;2024-03-02T17:04:47;79.20;;;39.93;;
18592;SDS011;9426;54.118;17.948;2024-03-02T17:10:11;90.40;;;43.73;;
18592;SDS011;9426;54.118;17.948;2024-03-02T17:15:36;80.87;;;39.20;;
18592;SDS011;9426;54.118;17.948;2024-03-02T17:21:01;87.10;;;42.60;;
18592;SDS011;9426;54.118;17.948;2024-03-02T17:26:25;82.03;;;43.53;;
18592;SDS011;9426;54.118;17.948;2024-03-02T17:31:50;97.17;;;48.53;;
18592;SDS011;9426;54.118;17.948;2024-03-02T17:37:14;94.40;;;43.60;;
18592;SDS011;9426;54.118;17.948;2024-03-02T17:42:37;94.10;;;44.70;;
18592;SDS011;9426;54.118;17.948;2024-03-02T17:48:03;88.43;;;43.50;;
18592;SDS011;9426;54.118;17.948;2024-03-02T17:53:27;81.70;;;40.03;;
18592;SDS011;9426;54.118;17.948;2024-03-02T17:58:51;91.43;;;44.33;;
18592;SDS011;9426;54.118;17.948;2024-03-02T18:04:18;95.70;;;46.03;;
18592;SDS011;9426;54.118;17.948;2024-03-02T18:09:43;90.37;;;43.53;;
18592;SDS011;9426;54.118;17.948;2024-03-02T18:15:07;87.00;;;44.33;;
18592;SDS011;9426;54.118;17.948;2024-03-02T18:20:35;96.20;;;45.23;;
18592;SDS011;9426;54.118;17.948;2024-03-02T18:26:02;93.73;;;45.13;;
18592;SDS011;9426;54.118;17.948;2024-03-02T18:31:25;97.33;;;46.43;;
18592;SDS011;9426;54.118;17.948;2024-03-02T18:36:51;98.00;;;49.17;;
18592;SDS011;9426;54.118;17.948;2024-03-02T18:42:16;96.93;;;46.40;;
18592;SDS011;9426;54.118;17.948;2024-03-02T18:47:44;115.70;;;52.63;;
18592;SDS011;9426;54.118;17.948;2024-03-02T18:53:13;127.00;;;53.80;;
18592;SDS011;9426;54.118;17.948;2024-03-02T18:58:37;113.23;;;50.80;;
18592;SDS011;9426;54.118;17.948;2024-03-02T19:04:01;128.63;;;51.50;;
18592;SDS011;9426;54.118;17.948;2024-03-02T19:09:27;120.33;;;52.47;;
18592;SDS011;9426;54.118;17.948;2024-03-02T19:14:50;114.10;;;50.30;;
18592;SDS011;9426;54.118;17.948;2024-03-02T19:20:15;112.83;;;47.97;;
18592;SDS011;9426;54.118;17.948;2024-03-02T19:25:39;122.10;;;50.43;;
18592;SDS011;9426;54.118;17.948;2024-03-02T19:31:03;103.70;;;47.33;;
18592;SDS011;9426;54.118;17.948;2024-03-02T19:42:35;105.23;;;48.57;;
18592;SDS011;9426;54.118;17.948;2024-03-02T20:35:47;90.53;;;42.53;;
18592;SDS011;9426;54.118;17.948;2024-03-02T20:47:19;94.03;;;41.30;;
18592;SDS011;9426;54.118;17.948;2024-03-02T20:52:45;88.23;;;42.47;;
18592;SDS011;9426;54.118;17.948;2024-03-02T20:58:09;96.17;;;43.40;;
18592;SDS011;9426;54.118;17.948;2024-03-02T21:03:35;110.83;;;49.17;;
18592;SDS011;9426;54.118;17.948;2024-03-02T21:09:03;121.97;;;50.57;;
18592;SDS011;9426;54.118;17.948;2024-03-02T21:14:28;128.30;;;51.27;;
18592;SDS011;9426;54.118;17.948;2024-03-02T21:19:51;127.73;;;50.10;;
18592;SDS011;9426;54.118;17.948;2024-03-02T21:25:18;108.87;;;46.83;;
18592;SDS011;9426;54.118;17.948;2024-03-02T21:30:42;105.87;;;45.83;;
18592;SDS011;9426;54.118;17.948;2024-03-02T21:36:06;99.20;;;42.30;;
18592;SDS011;9426;54.118;17.948;2024-03-02T21:41:32;96.33;;;43.97;;
18592;SDS011;9426;54.118;17.948;2024-03-02T21:46:57;101.30;;;45.90;;
18592;SDS011;9426;54.118;17.948;2024-03-02T21:52:24;96.87;;;41.23;;
18592;SDS011;9426;54.118;17.948;2024-03-02T21:57:50;91.43;;;41.20;;
18592;SDS011;9426;54.118;17.948;2024-03-02T22:03:15;96.97;;;43.03;;
18592;SDS011;9426;54.118;17.948;2024-03-02T22:08:39;85.30;;;41.57;;
18592;SDS011;9426;54.118;17.948;2024-03-02T22:14:05;94.20;;;42.23;;
18592;SDS011;9426;54.118;17.948;2024-03-02T22:19:31;94.03;;;43.90;;
18592;SDS011;9426;54.118;17.948;2024-03-02T22:24:55;92.70;;;43.57;;
18592;SDS011;9426;54.118;17.948;2024-03-02T22:30:20;97.50;;;43.60;;
18592;SDS011;9426;54.118;17.948;2024-03-02T22:35:45;89.90;;;42.27;;
18592;SDS011;9426;54.118;17.948;2024-03-02T22:41:10;98.20;;;43.53;;
18592;SDS011;9426;54.118;17.948;2024-03-02T22:46:35;98.63;;;43.83;;
18592;SDS011;9426;54.118;17.948;2024-03-02T22:51:58;90.27;;;41.03;;
18592;SDS011;9426;54.118;17.948;2024-03-02T22:57:22;91.47;;;41.00;;
18592;SDS011;9426;54.118;17.948;2024-03-02T23:02:47;90.37;;;42.73;;
18592;SDS011;9426;54.118;17.948;2024-03-02T23:08:11;93.20;;;42.27;;
18592;SDS011;9426;54.118;17.948;2024-03-02T23:13:34;75.87;;;37.80;;
18592;SDS011;9426;54.118;17.948;2024-03-02T23:18:59;87.87;;;38.17;;
18592;SDS011;9426;54.118;17.948;2024-03-02T23:24:23;81.73;;;37.33;;
18592;SDS011;9426;54.118;17.948;2024-03-02T23:29:47;77.37;;;37.83;;
18592;SDS011;9426;54.118;17.948;2024-03-02T23:35:12;73.47;;;36.13;;
18592;SDS011;9426;54.118;17.948;2024-03-02T23:40:36;81.30;;;37.80;;
18592;SDS011;9426;54.118;17.948;2024-03-02T23:46:29;76.03;;;38.23;;
18592;SDS011;9426;54.118;17.948;2024-03-02T23:51:54;81.47;;;39.90;;
18592;SDS011;9426;54.118;17.948;2024-03-02T23:57:18;79.17;;;38.03;;
